sensor_id;sensor_type;location;lat;lon;timestamp;pressure;altitude;pressure_sealevel;temperature;humidity
3917;BME280;1973;50.518;7.318;2023-05-23T00:01:03;100932.84;;;18.25;100.00
3917;BME280;1973;50.518;7.318;2023-05-23T00:03:32;100936.97;;;18.23;100.00
3917;BME280;1973;50.518;7.318;2023-05-23T00:06:00;100928.03;;;18.21;100.00
3917;BME280;1973;50.518;7.318;2023-05-23T00:08:26;100929.06;;;18.15;100.00
3917;BME280;1973;50.518;7.318;2023-05-23T00:10:53;100937.41;;;18.10;100.00
3917;BME280;1973;50.518;7.318;2023-05-23T00:13:19;100941.22;;;18.04;100.00
3917;BME280;1973;50.518;7.318;2023-05-23T00:15:46;100949.47;;;17.93;100.00
3917;BME280;1973;50.518;7.318;2023-05-23T00:18:13;100943.25;;;17.86;100.00
3917;BME280;1973;50.518;7.318;2023-05-23T00:20:42;100940.72;;;17.85;100.00
3917;BME280;1973;50.518;7.318;2023-05-23T00:23:09;100932.84;;;17.77;100.00
3917;BME280;1973;50.518;7.318;2023-05-23T00:25:37;100945.91;;;17.76;100.00
3917;BME280;1973;50.518;7.318;2023-05-23T00:28:03;100946.38;;;17.68;100.00
3917;BME280;1973;50.518;7.318;2023-05-23T00:30:32;100949.69;;;17.65;100.00
3917;BME280;1973;50.518;7.318;2023-05-23T00:32:59;100942.66;;;17.63;100.00
3917;BME280;1973;50.518;7.318;2023-05-23T00:35:26;100953.47;;;17.59;100.00
3917;BME280;1973;50.518;7.318;2023-05-23T00:37:53;100954.47;;;17.53;100.00
3917;BME280;1973;50.518;7.318;2023-05-23T00:40:21;100953.06;;;17.50;100.00
3917;BME280;1973;50.518;7.318;2023-05-23T00:42:48;100952.47;;;17.48;100.00
3917;BME280;1973;50.518;7.318;2023-05-23T00:45:15;100956.69;;;17.51;100.00
3917;BME280;1973;50.518;7.318;2023-05-23T00:47:43;100964.78;;;17.52;100.00
3917;BME280;1973;50.518;7.318;2023-05-23T00:50:12;100953.31;;;17.49;100.00
3917;BME280;1973;50.518;7.318;2023-05-23T00:52:41;100949.97;;;17.47;100.00
3917;BME280;1973;50.518;7.318;2023-05-23T00:55:08;100956.63;;;17.46;100.00
3917;BME280;1973;50.518;7.318;2023-05-23T00:57:36;100962.44;;;17.44;100.00
3917;BME280;1973;50.518;7.318;2023-05-23T01:00:12;100951.47;;;17.38;100.00
3917;BME280;1973;50.518;7.318;2023-05-23T01:02:44;100948.88;;;17.31;100.00
3917;BME280;1973;50.518;7.318;2023-05-23T01:05:13;100953.53;;;17.26;100.00
3917;BME280;1973;50.518;7.318;2023-05-23T01:07:45;100955.72;;;17.24;100.00
3917;BME280;1973;50.518;7.318;2023-05-23T01:10:13;100965.16;;;17.23;100.00
3917;BME280;1973;50.518;7.318;2023-05-23T01:18:25;100957.19;;;17.10;100.00
3917;BME280;1973;50.518;7.318;2023-05-23T01:20:54;100969.94;;;17.06;100.00
3917;BME280;1973;50.518;7.318;2023-05-23T01:26:17;100964.88;;;17.02;100.00
3917;BME280;1973;50.518;7.318;2023-05-23T01:28:52;100969.84;;;17.00;100.00
3917;BME280;1973;50.518;7.318;2023-05-23T01:31:21;100968.66;;;16.96;100.00
3917;BME280;1973;50.518;7.318;2023-05-23T01:33:50;100972.47;;;16.90;100.00
3917;BME280;1973;50.518;7.318;2023-05-23T01:36:19;100972.97;;;16.87;100.00
3917;BME280;1973;50.518;7.318;2023-05-23T01:38:46;100959.25;;;16.81;100.00
3917;BME280;1973;50.518;7.318;2023-05-23T01:41:13;100970.03;;;16.77;100.00
3917;BME280;1973;50.518;7.318;2023-05-23T01:43:39;100975.50;;;16.72;100.00
3917;BME280;1973;50.518;7.318;2023-05-23T01:46:06;100976.84;;;16.70;100.00
3917;BME280;1973;50.518;7.318;2023-05-23T01:48:33;100976.00;;;16.69;100.00
3917;BME280;1973;50.518;7.318;2023-05-23T01:51:00;100976.97;;;16.63;100.00
3917;BME280;1973;50.518;7.318;2023-05-23T01:53:27;100980.53;;;16.59;100.00
3917;BME280;1973;50.518;7.318;2023-05-23T01:55:56;100988.28;;;16.57;100.00
3917;BME280;1973;50.518;7.318;2023-05-23T01:58:22;100991.06;;;16.57;100.00
3917;BME280;1973;50.518;7.318;2023-05-23T02:00:49;100997.66;;;16.55;100.00
3917;BME280;1973;50.518;7.318;2023-05-23T02:03:15;100997.94;;;16.54;100.00
3917;BME280;1973;50.518;7.318;2023-05-23T02:05:42;101006.50;;;16.52;100.00
3917;BME280;1973;50.518;7.318;2023-05-23T02:08:09;101006.78;;;16.51;100.00
3917;BME280;1973;50.518;7.318;2023-05-23T02:10:35;101004.56;;;16.53;100.00
3917;BME280;1973;50.518;7.318;2023-05-23T02:13:02;100995.16;;;16.54;100.00
3917;BME280;1973;50.518;7.318;2023-05-23T02:15:28;101004.72;;;16.58;100.00
3917;BME280;1973;50.518;7.318;2023-05-23T02:17:55;101010.34;;;16.63;100.00
3917;BME280;1973;50.518;7.318;2023-05-23T02:20:22;101013.22;;;16.68;100.00
3917;BME280;1973;50.518;7.318;2023-05-23T02:22:48;101008.84;;;16.72;100.00
3917;BME280;1973;50.518;7.318;2023-05-23T02:25:15;101006.41;;;16.76;100.00
3917;BME280;1973;50.518;7.318;2023-05-23T02:27:41;101006.19;;;16.77;100.00
3917;BME280;1973;50.518;7.318;2023-05-23T02:30:08;101005.66;;;16.80;100.00
3917;BME280;1973;50.518;7.318;2023-05-23T02:32:35;101006.25;;;16.82;100.00
3917;BME280;1973;50.518;7.318;2023-05-23T02:35:03;101013.50;;;16.83;100.00
3917;BME280;1973;50.518;7.318;2023-05-23T02:37:31;101006.84;;;16.84;100.00
3917;BME280;1973;50.518;7.318;2023-05-23T02:39:57;101014.94;;;16.86;100.00
3917;BME280;1973;50.518;7.318;2023-05-23T02:42:24;101004.81;;;16.80;100.00
3917;BME280;1973;50.518;7.318;2023-05-23T02:44:50;101012.94;;;16.81;100.00
3917;BME280;1973;50.518;7.318;2023-05-23T02:47:17;101010.16;;;16.81;100.00
3917;BME280;1973;50.518;7.318;2023-05-23T02:49:43;101010.16;;;16.81;100.00
3917;BME280;1973;50.518;7.318;2023-05-23T02:52:10;101016.78;;;16.80;100.00
3917;BME280;1973;50.518;7.318;2023-05-23T02:54:36;101021.28;;;16.81;100.00
3917;BME280;1973;50.518;7.318;2023-05-23T02:57:03;101017.31;;;16.77;100.00
3917;BME280;1973;50.518;7.318;2023-05-23T02:59:30;101012.94;;;16.81;100.00
3917;BME280;1973;50.518;7.318;2023-05-23T03:01:56;101009.03;;;16.82;100.00
3917;BME280;1973;50.518;7.318;2023-05-23T03:04:23;101019.66;;;16.85;100.00
3917;BME280;1973;50.518;7.318;2023-05-23T03:06:49;101016.38;;;16.88;100.00
3917;BME280;1973;50.518;7.318;2023-05-23T03:09:19;101017.53;;;16.92;100.00
3917;BME280;1973;50.518;7.318;2023-05-23T03:11:46;101007.44;;;16.86;100.00
3917;BME280;1973;50.518;7.318;2023-05-23T03:14:12;101021.34;;;16.86;100.00
3917;BME280;1973;50.518;7.318;2023-05-23T03:16:39;101014.09;;;16.85;100.00
3917;BME280;1973;50.518;7.318;2023-05-23T03:19:06;101021.50;;;16.80;100.00
3917;BME280;1973;50.518;7.318;2023-05-23T03:21:32;101020.66;;;16.79;100.00
3917;BME280;1973;50.518;7.318;2023-05-23T03:24:00;101015.00;;;16.74;100.00
3917;BME280;1973;50.518;7.318;2023-05-23T03:26:27;101027.22;;;16.73;100.00
3917;BME280;1973;50.518;7.318;2023-05-23T03:28:54;101021.00;;;16.66;100.00
3917;BME280;1973;50.518;7.318;2023-05-23T03:31:21;101028.72;;;16.64;100.00
3917;BME280;1973;50.518;7.318;2023-05-23T03:33:48;101035.28;;;16.58;100.00
3917;BME280;1973;50.518;7.318;2023-05-23T03:36:14;101037.94;;;16.53;100.00
3917;BME280;1973;50.518;7.318;2023-05-23T03:38:41;101041.31;;;16.55;100.00
3917;BME280;1973;50.518;7.318;2023-05-23T03:41:08;101040.13;;;16.51;100.00
3917;BME280;1973;50.518;7.318;2023-05-23T03:43:34;101033.78;;;16.55;100.00
3917;BME280;1973;50.518;7.318;2023-05-23T03:46:01;101052.34;;;16.50;100.00
3917;BME280;1973;50.518;7.318;2023-05-23T03:48:28;101052.84;;;16.47;100.00
3917;BME280;1973;50.518;7.318;2023-05-23T03:50:55;101058.75;;;16.50;100.00
3917;BME280;1973;50.518;7.318;2023-05-23T03:53:22;101042.22;;;16.44;100.00
3917;BME280;1973;50.518;7.318;2023-05-23T03:55:49;101060.81;;;16.43;100.00
3917;BME280;1973;50.518;7.318;2023-05-23T03:58:16;101052.22;;;16.45;100.00
3917;BME280;1973;50.518;7.318;2023-05-23T04:00:42;101057.31;;;16.48;100.00
3917;BME280;1973;50.518;7.318;2023-05-23T04:03:09;101052.91;;;16.52;100.00
3917;BME280;1973;50.518;7.318;2023-05-23T04:05:37;101048.34;;;16.46;100.00
3917;BME280;1973;50.518;7.318;2023-05-23T04:08:03;101051.75;;;16.48;100.00
3917;BME280;1973;50.518;7.318;2023-05-23T04:10:30;101049.22;;;16.46;100.00
3917;BME280;1973;50.518;7.318;2023-05-23T04:12:57;101057.03;;;16.49;100.00
3917;BME280;1973;50.518;7.318;2023-05-23T04:15:24;101049.91;;;16.53;100.00
3917;BME280;1973;50.518;7.318;2023-05-23T04:17:51;101056.31;;;16.54;100.00
3917;BME280;1973;50.518;7.318;2023-05-23T04:20:18;101062.25;;;16.58;100.00
3917;BME280;1973;50.518;7.318;2023-05-23T04:22:44;101060.53;;;16.57;100.00
3917;BME280;1973;50.518;7.318;2023-05-23T04:25:11;101064.78;;;16.59;100.00
3917;BME280;1973;50.518;7.318;2023-05-23T04:27:39;101054.75;;;16.58;100.00
3917;BME280;1973;50.518;7.318;2023-05-23T04:30:06;101067.56;;;16.59;100.00
3917;BME280;1973;50.518;7.318;2023-05-23T04:32:34;101058.00;;;16.55;100.00
3917;BME280;1973;50.518;7.318;2023-05-23T04:35:01;101065.03;;;16.58;100.00
3917;BME280;1973;50.518;7.318;2023-05-23T04:37:29;101061.88;;;16.54;100.00
3917;BME280;1973;50.518;7.318;2023-05-23T04:39:58;101064.66;;;16.54;100.00
3917;BME280;1973;50.518;7.318;2023-05-23T04:42:27;101074.81;;;16.48;100.00
3917;BME280;1973;50.518;7.318;2023-05-23T04:44:54;101072.44;;;16.40;100.00
3917;BME280;1973;50.518;7.318;2023-05-23T04:47:23;101070.75;;;16.39;100.00
3917;BME280;1973;50.518;7.318;2023-05-23T04:49:50;101074.38;;;16.40;100.00
3917;BME280;1973;50.518;7.318;2023-05-23T04:52:19;101075.25;;;16.29;100.00
3917;BME280;1973;50.518;7.318;2023-05-23T04:54:45;101087.94;;;16.25;100.00
3917;BME280;1973;50.518;7.318;2023-05-23T04:57:14;101089.19;;;16.17;100.00
3917;BME280;1973;50.518;7.318;2023-05-23T04:59:40;101085.56;;;16.17;100.00
3917;BME280;1973;50.518;7.318;2023-05-23T05:02:08;101085.44;;;16.12;100.00
3917;BME280;1973;50.518;7.318;2023-05-23T05:04:34;101084.97;;;16.15;100.00
3917;BME280;1973;50.518;7.318;2023-05-23T05:07:01;101091.75;;;16.07;100.00
3917;BME280;1973;50.518;7.318;2023-05-23T05:09:29;101093.81;;;16.00;100.00
3917;BME280;1973;50.518;7.318;2023-05-23T05:11:59;101101.66;;;15.91;100.00
3917;BME280;1973;50.518;7.318;2023-05-23T05:14:25;101093.56;;;15.90;100.00
3917;BME280;1973;50.518;7.318;2023-05-23T05:16:53;101091.50;;;15.85;100.00
3917;BME280;1973;50.518;7.318;2023-05-23T05:19:23;101102.63;;;15.85;100.00
3917;BME280;1973;50.518;7.318;2023-05-23T05:21:49;101101.53;;;15.86;100.00
3917;BME280;1973;50.518;7.318;2023-05-23T05:24:16;101103.47;;;15.86;100.00
3917;BME280;1973;50.518;7.318;2023-05-23T05:26:43;101104.31;;;15.86;100.00
3917;BME280;1973;50.518;7.318;2023-05-23T05:29:09;101104.31;;;15.86;100.00
3917;BME280;1973;50.518;7.318;2023-05-23T05:31:36;101105.66;;;15.84;100.00
3917;BME280;1973;50.518;7.318;2023-05-23T05:34:03;101109.50;;;15.83;100.00
3917;BME280;1973;50.518;7.318;2023-05-23T05:36:30;101109.50;;;15.83;100.00
3917;BME280;1973;50.518;7.318;2023-05-23T05:38:57;101108.16;;;15.85;100.00
3917;BME280;1973;50.518;7.318;2023-05-23T05:41:24;101108.16;;;15.85;100.00
3917;BME280;1973;50.518;7.318;2023-05-23T05:43:52;101109.88;;;15.86;100.00
3917;BME280;1973;50.518;7.318;2023-05-23T05:46:18;101118.81;;;15.88;100.00
3917;BME280;1973;50.518;7.318;2023-05-23T05:48:45;101112.91;;;15.85;100.00
3917;BME280;1973;50.518;7.318;2023-05-23T05:51:12;101115.41;;;15.86;100.00
3917;BME280;1973;50.518;7.318;2023-05-23T05:53:38;101120.13;;;15.86;100.00
3917;BME280;1973;50.518;7.318;2023-05-23T05:56:05;101119.06;;;15.87;100.00
3917;BME280;1973;50.518;7.318;2023-05-23T05:58:34;101124.25;;;15.83;100.00
3917;BME280;1973;50.518;7.318;2023-05-23T06:01:01;101126.53;;;15.86;100.00
3917;BME280;1973;50.518;7.318;2023-05-23T06:03:27;101129.78;;;15.83;100.00
3917;BME280;1973;50.518;7.318;2023-05-23T06:05:54;101134.75;;;15.81;100.00
3917;BME280;1973;50.518;7.318;2023-05-23T06:08:21;101135.13;;;15.85;100.00
3917;BME280;1973;50.518;7.318;2023-05-23T06:10:47;101137.63;;;15.86;100.00
3917;BME280;1973;50.518;7.318;2023-05-23T06:13:14;101135.47;;;15.88;100.00
3917;BME280;1973;50.518;7.318;2023-05-23T06:15:41;101146.47;;;15.83;100.00
3917;BME280;1973;50.518;7.318;2023-05-23T06:18:07;101143.69;;;15.83;100.00
3917;BME280;1973;50.518;7.318;2023-05-23T06:20:34;101146.69;;;15.82;100.00
3917;BME280;1973;50.518;7.318;2023-05-23T06:23:00;101139.69;;;15.79;100.00
3917;BME280;1973;50.518;7.318;2023-05-23T06:25:30;101146.81;;;15.75;100.00
3917;BME280;1973;50.518;7.318;2023-05-23T06:27:57;101151.88;;;15.78;100.00
3917;BME280;1973;50.518;7.318;2023-05-23T06:30:23;101151.66;;;15.80;100.00
3917;BME280;1973;50.518;7.318;2023-05-23T06:32:50;101144.41;;;15.79;100.00
3917;BME280;1973;50.518;7.318;2023-05-23T06:35:16;101144.31;;;15.74;100.00
3917;BME280;1973;50.518;7.318;2023-05-23T06:37:43;101151.88;;;15.78;100.00
3917;BME280;1973;50.518;7.318;2023-05-23T06:40:11;101144.16;;;15.80;100.00
3917;BME280;1973;50.518;7.318;2023-05-23T06:42:40;101147.88;;;15.74;100.00
3917;BME280;1973;50.518;7.318;2023-05-23T06:45:07;101153.44;;;15.74;100.00
3917;BME280;1973;50.518;7.318;2023-05-23T06:47:34;101154.44;;;15.80;100.00
3917;BME280;1973;50.518;7.318;2023-05-23T06:50:01;101158.41;;;15.84;100.00
3917;BME280;1973;50.518;7.318;2023-05-23T06:52:27;101162.41;;;15.88;100.00
3917;BME280;1973;50.518;7.318;2023-05-23T06:54:54;101161.06;;;15.90;100.00
3917;BME280;1973;50.518;7.318;2023-05-23T06:57:20;101158.66;;;15.94;100.00
3917;BME280;1973;50.518;7.318;2023-05-23T06:59:47;101163.72;;;15.97;100.00
3917;BME280;1973;50.518;7.318;2023-05-23T07:02:13;101159.13;;;16.02;100.00
3917;BME280;1973;50.518;7.318;2023-05-23T07:04:40;101158.88;;;16.04;100.00
3917;BME280;1973;50.518;7.318;2023-05-23T07:07:06;101159.72;;;16.04;100.00
3917;BME280;1973;50.518;7.318;2023-05-23T07:09:33;101165.91;;;16.06;100.00
3917;BME280;1973;50.518;7.318;2023-05-23T07:11:59;101165.91;;;16.06;100.00
3917;BME280;1973;50.518;7.318;2023-05-23T07:14:26;101162.50;;;16.04;100.00
3917;BME280;1973;50.518;7.318;2023-05-23T07:16:52;101176.38;;;16.04;100.00
3917;BME280;1973;50.518;7.318;2023-05-23T07:19:19;101166.84;;;16.00;100.00
3917;BME280;1973;50.518;7.318;2023-05-23T07:21:45;101163.97;;;15.95;100.00
3917;BME280;1973;50.518;7.318;2023-05-23T07:24:12;101165.28;;;15.93;100.00
3917;BME280;1973;50.518;7.318;2023-05-23T07:26:38;101168.53;;;15.90;100.00
3917;BME280;1973;50.518;7.318;2023-05-23T07:29:05;101167.09;;;15.87;100.00
3917;BME280;1973;50.518;7.318;2023-05-23T07:31:32;101175.44;;;15.87;100.00
3917;BME280;1973;50.518;7.318;2023-05-23T07:33:58;101174.81;;;15.85;100.00
3917;BME280;1973;50.518;7.318;2023-05-23T07:36:25;101179.19;;;15.81;100.00
3917;BME280;1973;50.518;7.318;2023-05-23T07:38:52;101175.44;;;15.76;100.00
3917;BME280;1973;50.518;7.318;2023-05-23T07:41:19;101183.38;;;15.72;100.00
3917;BME280;1973;50.518;7.318;2023-05-23T07:43:46;101189.16;;;15.71;100.00
3917;BME280;1973;50.518;7.318;2023-05-23T07:46:12;101180.38;;;15.74;100.00
3917;BME280;1973;50.518;7.318;2023-05-23T07:48:39;101192.94;;;15.76;100.00
3917;BME280;1973;50.518;7.318;2023-05-23T07:51:05;101188.59;;;15.80;100.00
3917;BME280;1973;50.518;7.318;2023-05-23T07:53:32;101187.75;;;15.80;100.00
3917;BME280;1973;50.518;7.318;2023-05-23T07:55:58;101200.28;;;15.82;100.00
3917;BME280;1973;50.518;7.318;2023-05-23T07:58:25;101201.41;;;15.81;100.00
3917;BME280;1973;50.518;7.318;2023-05-23T08:00:51;101208.13;;;15.85;100.00
3917;BME280;1973;50.518;7.318;2023-05-23T08:03:18;101203.69;;;15.84;100.00
3917;BME280;1973;50.518;7.318;2023-05-23T08:05:46;101204.78;;;15.83;100.00
3917;BME280;1973;50.518;7.318;2023-05-23T08:08:12;101206.47;;;15.84;100.00
3917;BME280;1973;50.518;7.318;2023-05-23T08:10:38;101198.13;;;15.84;100.00
3917;BME280;1973;50.518;7.318;2023-05-23T08:13:07;101209.25;;;15.84;100.00
3917;BME280;1973;50.518;7.318;2023-05-23T08:15:34;101200.28;;;15.82;100.00
3917;BME280;1973;50.518;7.318;2023-05-23T08:18:00;101213.94;;;15.84;100.00
3917;BME280;1973;50.518;7.318;2023-05-23T08:20:27;101210.81;;;15.80;100.00
3917;BME280;1973;50.518;7.318;2023-05-23T08:23:01;101209.59;;;15.76;100.00
3917;BME280;1973;50.518;7.318;2023-05-23T08:25:28;101215.00;;;15.71;100.00
3917;BME280;1973;50.518;7.318;2023-05-23T08:27:58;101218.41;;;15.73;100.00
3917;BME280;1973;50.518;7.318;2023-05-23T08:30:26;101217.78;;;15.71;100.00
3917;BME280;1973;50.518;7.318;2023-05-23T08:32:54;101222.03;;;15.74;100.00
3917;BME280;1973;50.518;7.318;2023-05-23T08:35:21;101218.06;;;15.81;100.00
3917;BME280;1973;50.518;7.318;2023-05-23T08:37:48;101220.72;;;15.88;100.00
3917;BME280;1973;50.518;7.318;2023-05-23T08:40:20;101213.97;;;15.95;100.00
3917;BME280;1973;50.518;7.318;2023-05-23T08:42:48;101220.72;;;15.99;100.00
3917;BME280;1973;50.518;7.318;2023-05-23T08:45:16;101225.91;;;16.07;100.00
3917;BME280;1973;50.518;7.318;2023-05-23T08:47:44;101214.44;;;16.16;100.00
3917;BME280;1973;50.518;7.318;2023-05-23T08:50:13;101217.22;;;16.27;100.00
3917;BME280;1973;50.518;7.318;2023-05-23T08:52:48;101224.53;;;16.45;100.00
3917;BME280;1973;50.518;7.318;2023-05-23T08:55:16;101220.47;;;16.59;100.00
3917;BME280;1973;50.518;7.318;2023-05-23T08:57:43;101225.63;;;16.67;100.00
3917;BME280;1973;50.518;7.318;2023-05-23T09:00:11;101216.06;;;16.75;100.00
3917;BME280;1973;50.518;7.318;2023-05-23T09:02:42;101225.56;;;16.90;100.00
3917;BME280;1973;50.518;7.318;2023-05-23T09:05:09;101228.91;;;17.04;100.00
3917;BME280;1973;50.518;7.318;2023-05-23T09:07:36;101228.84;;;17.16;100.00
3917;BME280;1973;50.518;7.318;2023-05-23T09:10:05;101216.84;;;17.27;100.00
3917;BME280;1973;50.518;7.318;2023-05-23T09:12:33;101227.47;;;17.30;100.00
3917;BME280;1973;50.518;7.318;2023-05-23T09:15:03;101227.97;;;17.27;100.00
3917;BME280;1973;50.518;7.318;2023-05-23T09:17:31;101222.16;;;17.28;100.00
3917;BME280;1973;50.518;7.318;2023-05-23T09:19:59;101236.06;;;17.28;100.00
3917;BME280;1973;50.518;7.318;2023-05-23T09:22:27;101239.72;;;17.29;100.00
3917;BME280;1973;50.518;7.318;2023-05-23T09:24:54;101243.56;;;17.28;100.00
3917;BME280;1973;50.518;7.318;2023-05-23T09:27:21;101241.56;;;17.12;100.00
3917;BME280;1973;50.518;7.318;2023-05-23T09:29:49;101243.28;;;17.13;100.00
3917;BME280;1973;50.518;7.318;2023-05-23T09:32:16;101245.47;;;17.11;100.00
3917;BME280;1973;50.518;7.318;2023-05-23T09:35:01;101241.50;;;17.07;100.00
3917;BME280;1973;50.518;7.318;2023-05-23T09:40:04;101247.25;;;16.88;100.00
3917;BME280;1973;50.518;7.318;2023-05-23T09:42:32;101252.69;;;16.83;100.00
3917;BME280;1973;50.518;7.318;2023-05-23T09:45:02;101246.53;;;16.81;100.00
3917;BME280;1973;50.518;7.318;2023-05-23T09:47:30;101251.47;;;16.79;100.00
3917;BME280;1973;50.518;7.318;2023-05-23T09:49:57;101246.78;;;16.68;100.00
3917;BME280;1973;50.518;7.318;2023-05-23T09:52:23;101249.44;;;16.63;100.00
3917;BME280;1973;50.518;7.318;2023-05-23T09:54:50;101252.47;;;16.73;100.00
3917;BME280;1973;50.518;7.318;2023-05-23T09:57:18;101253.88;;;16.87;100.00
3917;BME280;1973;50.518;7.318;2023-05-23T09:59:53;101253.00;;;16.98;100.00
3917;BME280;1973;50.518;7.318;2023-05-23T10:02:52;101252.63;;;17.07;100.00
3917;BME280;1973;50.518;7.318;2023-05-23T10:05:47;101249.34;;;17.10;100.00
3917;BME280;1973;50.518;7.318;2023-05-23T10:08:24;101252.63;;;17.07;100.00
3917;BME280;1973;50.518;7.318;2023-05-23T10:13:26;101256.66;;;16.87;100.00
3917;BME280;1973;50.518;7.318;2023-05-23T10:16:08;101262.59;;;16.79;100.00
3917;BME280;1973;50.518;7.318;2023-05-23T10:18:44;101273.03;;;16.72;100.00
3917;BME280;1973;50.518;7.318;2023-05-23T10:21:18;101263.25;;;16.58;100.00
3917;BME280;1973;50.518;7.318;2023-05-23T10:23:46;101277.97;;;16.47;100.00
3917;BME280;1973;50.518;7.318;2023-05-23T10:26:14;101266.38;;;16.27;100.00
3917;BME280;1973;50.518;7.318;2023-05-23T10:28:40;101272.53;;;16.17;100.00
3917;BME280;1973;50.518;7.318;2023-05-23T10:31:07;101291.50;;;16.08;100.00
3917;BME280;1973;50.518;7.318;2023-05-23T10:33:39;101286.91;;;16.02;100.00
3917;BME280;1973;50.518;7.318;2023-05-23T10:36:13;101288.25;;;16.00;100.00
3917;BME280;1973;50.518;7.318;2023-05-23T10:39:15;101291.72;;;15.95;100.00
3917;BME280;1973;50.518;7.318;2023-05-23T10:41:50;101289.53;;;15.97;100.00
3917;BME280;1973;50.518;7.318;2023-05-23T10:44:28;101288.13;;;16.06;100.00
3917;BME280;1973;50.518;7.318;2023-05-23T10:46:58;101288.00;;;16.13;100.00
3917;BME280;1973;50.518;7.318;2023-05-23T10:49:46;101291.72;;;16.19;100.00
3917;BME280;1973;50.518;7.318;2023-05-23T10:52:17;101294.88;;;16.22;100.00
3917;BME280;1973;50.518;7.318;2023-05-23T10:54:49;101295.28;;;16.26;100.00
3917;BME280;1973;50.518;7.318;2023-05-23T10:57:20;101295.28;;;16.26;100.00
3917;BME280;1973;50.518;7.318;2023-05-23T10:59:50;101294.66;;;16.24;100.00
3917;BME280;1973;50.518;7.318;2023-05-23T11:02:18;101309.16;;;16.14;100.00
3917;BME280;1973;50.518;7.318;2023-05-23T11:05:16;101310.47;;;16.00;100.00
3917;BME280;1973;50.518;7.318;2023-05-23T11:07:43;101313.31;;;15.93;100.00
3917;BME280;1973;50.518;7.318;2023-05-23T11:10:11;101312.94;;;15.90;100.00
3917;BME280;1973;50.518;7.318;2023-05-23T11:12:40;101321.53;;;15.88;100.00
3917;BME280;1973;50.518;7.318;2023-05-23T11:17:51;101322.13;;;15.90;100.00
3917;BME280;1973;50.518;7.318;2023-05-23T11:20:20;101318.50;;;15.90;100.00
3917;BME280;1973;50.518;7.318;2023-05-23T11:23:06;101326.63;;;15.91;100.00
3917;BME280;1973;50.518;7.318;2023-05-23T11:25:50;101325.25;;;15.82;100.00
3917;BME280;1973;50.518;7.318;2023-05-23T11:28:17;101334.31;;;15.78;100.00
3917;BME280;1973;50.518;7.318;2023-05-23T11:30:47;101335.75;;;15.80;100.00
3917;BME280;1973;50.518;7.318;2023-05-23T11:33:15;101339.00;;;15.77;100.00
3917;BME280;1973;50.518;7.318;2023-05-23T11:35:44;101338.75;;;15.79;100.00
3917;BME280;1973;50.518;7.318;2023-05-23T11:38:12;101341.69;;;15.84;100.00
3917;BME280;1973;50.518;7.318;2023-05-23T11:40:40;101340.59;;;15.85;100.00
3917;BME280;1973;50.518;7.318;2023-05-23T11:43:13;101354.38;;;15.91;100.00
3917;BME280;1973;50.518;7.318;2023-05-23T11:45:40;101337.84;;;15.96;100.00
3917;BME280;1973;50.518;7.318;2023-05-23T11:48:13;101338.50;;;16.10;100.00
3917;BME280;1973;50.518;7.318;2023-05-23T11:53:12;101342.97;;;16.23;100.00
3917;BME280;1973;50.518;7.318;2023-05-23T11:55:39;101333.78;;;16.34;100.00
3917;BME280;1973;50.518;7.318;2023-05-23T11:58:08;101335.50;;;16.35;100.00
3917;BME280;1973;50.518;7.318;2023-05-23T12:00:42;101335.34;;;16.30;100.00
3917;BME280;1973;50.518;7.318;2023-05-23T12:03:08;101335.50;;;16.35;100.00
3917;BME280;1973;50.518;7.318;2023-05-23T12:05:35;101340.09;;;16.41;100.00
3917;BME280;1973;50.518;7.318;2023-05-23T12:08:02;101343.25;;;16.56;100.00
3917;BME280;1973;50.518;7.318;2023-05-23T12:10:28;101326.72;;;16.73;100.00
3917;BME280;1973;50.518;7.318;2023-05-23T12:12:55;101320.88;;;16.86;100.00
3917;BME280;1973;50.518;7.318;2023-05-23T12:15:25;101329.19;;;16.97;100.00
3917;BME280;1973;50.518;7.318;2023-05-23T12:17:55;101324.69;;;17.20;100.00
3917;BME280;1973;50.518;7.318;2023-05-23T12:20:23;101321.50;;;17.28;100.00
3917;BME280;1973;50.518;7.318;2023-05-23T12:22:49;101325.84;;;17.35;100.00
3917;BME280;1973;50.518;7.318;2023-05-23T12:25:16;101335.75;;;17.43;100.00
3917;BME280;1973;50.518;7.318;2023-05-23T12:27:42;101327.06;;;17.68;100.00
3917;BME280;1973;50.518;7.318;2023-05-23T12:30:13;101331.09;;;17.88;100.00
3917;BME280;1973;50.518;7.318;2023-05-23T12:32:43;101334.72;;;18.06;100.00
3917;BME280;1973;50.518;7.318;2023-05-23T12:35:12;101338.63;;;18.21;100.00
3917;BME280;1973;50.518;7.318;2023-05-23T12:37:39;101339.72;;;18.37;100.00
3917;BME280;1973;50.518;7.318;2023-05-23T12:40:12;101325.69;;;18.15;100.00
3917;BME280;1973;50.518;7.318;2023-05-23T12:42:52;101342.69;;;18.14;100.00
3917;BME280;1973;50.518;7.318;2023-05-23T12:45:21;101336.69;;;18.05;100.00
3917;BME280;1973;50.518;7.318;2023-05-23T12:47:48;101342.31;;;17.93;100.00
3917;BME280;1973;50.518;7.318;2023-05-23T12:50:19;101340.47;;;17.99;100.00
3917;BME280;1973;50.518;7.318;2023-05-23T12:52:45;101355.72;;;17.96;100.00
3917;BME280;1973;50.518;7.318;2023-05-23T12:55:12;101349.53;;;18.06;100.00
3917;BME280;1973;50.518;7.318;2023-05-23T12:57:38;101347.56;;;18.23;100.00
3917;BME280;1973;50.518;7.318;2023-05-23T13:00:05;101354.75;;;18.19;100.00
3917;BME280;1973;50.518;7.318;2023-05-23T13:02:32;101356.69;;;18.19;100.00
3917;BME280;1973;50.518;7.318;2023-05-23T13:04:59;101356.97;;;18.17;100.00
3917;BME280;1973;50.518;7.318;2023-05-23T13:07:25;101358.97;;;18.22;100.00
3917;BME280;1973;50.518;7.318;2023-05-23T13:09:52;101354.91;;;18.29;100.00
3917;BME280;1973;50.518;7.318;2023-05-23T13:12:18;101350.38;;;18.40;100.00
3917;BME280;1973;50.518;7.318;2023-05-23T13:14:45;101355.97;;;18.57;100.00
3917;BME280;1973;50.518;7.318;2023-05-23T13:17:11;101346.50;;;18.58;100.00
3917;BME280;1973;50.518;7.318;2023-05-23T13:19:38;101355.19;;;18.44;100.00
3917;BME280;1973;50.518;7.318;2023-05-23T13:22:05;101354.50;;;18.71;100.00
3917;BME280;1973;50.518;7.318;2023-05-23T13:24:36;101343.66;;;18.91;100.00